sensor_id;sensor_type;location;lat;lon;timestamp;temperature;humidity
16515;DHT22;8370;52.556;7.970;2023-04-28T00:02:13;7.20;99.90
16515;DHT22;8370;52.556;7.970;2023-04-28T00:04:38;7.20;99.90
16515;DHT22;8370;52.556;7.970;2023-04-28T00:07:04;7.20;99.90
16515;DHT22;8370;52.556;7.970;2023-04-28T00:09:29;7.30;99.90
16515;DHT22;8370;52.556;7.970;2023-04-28T00:11:55;7.30;99.90
16515;DHT22;8370;52.556;7.970;2023-04-28T00:14:20;7.20;99.90
16515;DHT22;8370;52.556;7.970;2023-04-28T00:16:46;7.30;99.90
16515;DHT22;8370;52.556;7.970;2023-04-28T00:19:11;7.20;99.90
16515;DHT22;8370;52.556;7.970;2023-04-28T00:21:37;7.20;99.90
16515;DHT22;8370;52.556;7.970;2023-04-28T00:24:02;7.20;99.90
16515;DHT22;8370;52.556;7.970;2023-04-28T00:26:28;7.20;99.90
16515;DHT22;8370;52.556;7.970;2023-04-28T00:28:53;7.10;99.90
16515;DHT22;8370;52.556;7.970;2023-04-28T00:31:19;7.20;99.90
16515;DHT22;8370;52.556;7.970;2023-04-28T00:33:44;7.20;99.90
16515;DHT22;8370;52.556;7.970;2023-04-28T00:36:10;7.20;99.90
16515;DHT22;8370;52.556;7.970;2023-04-28T00:38:36;7.20;99.90
16515;DHT22;8370;52.556;7.970;2023-04-28T00:41:02;7.10;99.90
16515;DHT22;8370;52.556;7.970;2023-04-28T00:43:28;7.20;99.90
16515;DHT22;8370;52.556;7.970;2023-04-28T00:45:53;7.10;99.90
16515;DHT22;8370;52.556;7.970;2023-04-28T00:48:19;7.10;99.90
16515;DHT22;8370;52.556;7.970;2023-04-28T00:50:46;7.10;99.90
16515;DHT22;8370;52.556;7.970;2023-04-28T00:53:12;7.20;99.90
16515;DHT22;8370;52.556;7.970;2023-04-28T00:55:38;7.20;99.90
16515;DHT22;8370;52.556;7.970;2023-04-28T00:58:05;7.20;99.90
16515;DHT22;8370;52.556;7.970;2023-04-28T01:00:31;7.20;99.90
16515;DHT22;8370;52.556;7.970;2023-04-28T01:02:57;7.20;99.90
16515;DHT22;8370;52.556;7.970;2023-04-28T01:05:24;7.20;99.90
16515;DHT22;8370;52.556;7.970;2023-04-28T01:07:50;7.20;99.90
16515;DHT22;8370;52.556;7.970;2023-04-28T01:10:16;7.20;99.90
16515;DHT22;8370;52.556;7.970;2023-04-28T01:12:42;7.20;99.90
16515;DHT22;8370;52.556;7.970;2023-04-28T01:15:18;7.10;99.90
16515;DHT22;8370;52.556;7.970;2023-04-28T01:17:45;7.10;99.90
16515;DHT22;8370;52.556;7.970;2023-04-28T01:20:11;7.10;99.90
16515;DHT22;8370;52.556;7.970;2023-04-28T01:22:36;7.00;99.90
16515;DHT22;8370;52.556;7.970;2023-04-28T01:25:02;6.90;99.90
16515;DHT22;8370;52.556;7.970;2023-04-28T01:27:28;6.90;99.90
16515;DHT22;8370;52.556;7.970;2023-04-28T01:29:54;6.90;99.90
16515;DHT22;8370;52.556;7.970;2023-04-28T01:32:19;6.90;99.90
16515;DHT22;8370;52.556;7.970;2023-04-28T01:34:45;6.90;99.90
16515;DHT22;8370;52.556;7.970;2023-04-28T01:37:11;6.80;99.90
16515;DHT22;8370;52.556;7.970;2023-04-28T01:39:37;6.80;99.90
16515;DHT22;8370;52.556;7.970;2023-04-28T01:42:02;6.80;99.90
16515;DHT22;8370;52.556;7.970;2023-04-28T01:44:28;6.80;99.90
16515;DHT22;8370;52.556;7.970;2023-04-28T01:46:53;6.80;99.90
16515;DHT22;8370;52.556;7.970;2023-04-28T01:49:19;6.80;99.90
16515;DHT22;8370;52.556;7.970;2023-04-28T01:51:44;6.80;99.90
16515;DHT22;8370;52.556;7.970;2023-04-28T01:54:10;6.80;99.90
16515;DHT22;8370;52.556;7.970;2023-04-28T01:56:35;6.80;99.90
16515;DHT22;8370;52.556;7.970;2023-04-28T01:59:01;6.80;99.90
16515;DHT22;8370;52.556;7.970;2023-04-28T02:01:26;6.80;99.90
16515;DHT22;8370;52.556;7.970;2023-04-28T02:03:52;6.80;99.90
16515;DHT22;8370;52.556;7.970;2023-04-28T02:06:19;6.90;99.90
16515;DHT22;8370;52.556;7.970;2023-04-28T02:08:44;6.80;99.90
16515;DHT22;8370;52.556;7.970;2023-04-28T02:11:10;6.90;99.90
16515;DHT22;8370;52.556;7.970;2023-04-28T02:13:35;6.80;99.90
16515;DHT22;8370;52.556;7.970;2023-04-28T02:16:01;6.80;99.90
16515;DHT22;8370;52.556;7.970;2023-04-28T02:18:27;6.80;99.90
16515;DHT22;8370;52.556;7.970;2023-04-28T02:20:52;6.80;99.90
16515;DHT22;8370;52.556;7.970;2023-04-28T02:23:18;6.90;99.90
16515;DHT22;8370;52.556;7.970;2023-04-28T02:25:43;6.80;99.90
16515;DHT22;8370;52.556;7.970;2023-04-28T02:28:09;6.80;99.90
16515;DHT22;8370;52.556;7.970;2023-04-28T02:30:34;6.80;99.90
16515;DHT22;8370;52.556;7.970;2023-04-28T02:33:00;6.80;99.90
16515;DHT22;8370;52.556;7.970;2023-04-28T02:35:25;6.80;99.90
16515;DHT22;8370;52.556;7.970;2023-04-28T02:37:51;6.80;99.90
16515;DHT22;8370;52.556;7.970;2023-04-28T02:40:17;6.90;99.90
16515;DHT22;8370;52.556;7.970;2023-04-28T02:42:42;6.90;99.90
16515;DHT22;8370;52.556;7.970;2023-04-28T02:45:08;6.90;99.90
16515;DHT22;8370;52.556;7.970;2023-04-28T02:47:33;6.80;99.90
16515;DHT22;8370;52.556;7.970;2023-04-28T02:49:59;6.90;99.90
16515;DHT22;8370;52.556;7.970;2023-04-28T02:52:25;6.80;99.90
16515;DHT22;8370;52.556;7.970;2023-04-28T02:54:50;6.90;99.90
16515;DHT22;8370;52.556;7.970;2023-04-28T02:57:18;6.90;99.90
16515;DHT22;8370;52.556;7.970;2023-04-28T02:59:44;6.90;99.90
16515;DHT22;8370;52.556;7.970;2023-04-28T03:02:10;6.90;99.90
16515;DHT22;8370;52.556;7.970;2023-04-28T03:04:36;7.00;99.90
16515;DHT22;8370;52.556;7.970;2023-04-28T03:07:02;7.00;99.90
16515;DHT22;8370;52.556;7.970;2023-04-28T03:09:27;7.00;99.90
16515;DHT22;8370;52.556;7.970;2023-04-28T03:11:53;7.00;99.90
16515;DHT22;8370;52.556;7.970;2023-04-28T03:14:18;7.00;99.90
16515;DHT22;8370;52.556;7.970;2023-04-28T03:16:44;7.00;99.90
16515;DHT22;8370;52.556;7.970;2023-04-28T03:19:10;7.00;99.90
16515;DHT22;8370;52.556;7.970;2023-04-28T03:21:35;7.00;99.90
16515;DHT22;8370;52.556;7.970;2023-04-28T03:24:00;7.00;99.90
16515;DHT22;8370;52.556;7.970;2023-04-28T03:26:26;7.00;99.90
16515;DHT22;8370;52.556;7.970;2023-04-28T03:28:51;7.00;99.90
16515;DHT22;8370;52.556;7.970;2023-04-28T03:31:17;7.00;99.90
16515;DHT22;8370;52.556;7.970;2023-04-28T03:33:42;6.90;99.90
16515;DHT22;8370;52.556;7.970;2023-04-28T03:36:09;6.90;99.90
16515;DHT22;8370;52.556;7.970;2023-04-28T03:38:35;6.90;99.90
16515;DHT22;8370;52.556;7.970;2023-04-28T03:41:00;6.80;99.90
16515;DHT22;8370;52.556;7.970;2023-04-28T03:43:26;6.80;99.90
16515;DHT22;8370;52.556;7.970;2023-04-28T03:45:52;6.60;99.90
16515;DHT22;8370;52.556;7.970;2023-04-28T03:48:17;6.50;99.90
16515;DHT22;8370;52.556;7.970;2023-04-28T03:50:43;6.40;99.90
16515;DHT22;8370;52.556;7.970;2023-04-28T03:53:10;6.30;99.90
16515;DHT22;8370;52.556;7.970;2023-04-28T03:55:35;6.30;99.90
16515;DHT22;8370;52.556;7.970;2023-04-28T03:58:01;6.20;99.90
16515;DHT22;8370;52.556;7.970;2023-04-28T04:00:27;6.20;99.90
16515;DHT22;8370;52.556;7.970;2023-04-28T04:02:52;6.10;99.90
16515;DHT22;8370;52.556;7.970;2023-04-28T04:05:18;6.10;99.90
16515;DHT22;8370;52.556;7.970;2023-04-28T04:07:43;6.10;99.90
16515;DHT22;8370;52.556;7.970;2023-04-28T04:10:09;6.10;99.90
16515;DHT22;8370;52.556;7.970;2023-04-28T04:12:34;6.10;99.90
16515;DHT22;8370;52.556;7.970;2023-04-28T04:15:00;6.10;99.90
16515;DHT22;8370;52.556;7.970;2023-04-28T04:17:25;6.10;99.90
16515;DHT22;8370;52.556;7.970;2023-04-28T04:19:51;6.00;99.90
16515;DHT22;8370;52.556;7.970;2023-04-28T04:22:16;6.10;99.90
16515;DHT22;8370;52.556;7.970;2023-04-28T04:24:42;6.00;99.90
16515;DHT22;8370;52.556;7.970;2023-04-28T04:27:07;6.00;99.90
16515;DHT22;8370;52.556;7.970;2023-04-28T04:29:33;6.00;99.90
16515;DHT22;8370;52.556;7.970;2023-04-28T04:31:59;5.90;99.90
16515;DHT22;8370;52.556;7.970;2023-04-28T04:34:24;6.00;99.90
16515;DHT22;8370;52.556;7.970;2023-04-28T04:36:50;5.90;99.90
16515;DHT22;8370;52.556;7.970;2023-04-28T04:39:15;5.90;99.90
16515;DHT22;8370;52.556;7.970;2023-04-28T04:41:41;6.00;99.90
16515;DHT22;8370;52.556;7.970;2023-04-28T04:44:06;6.00;99.90
16515;DHT22;8370;52.556;7.970;2023-04-28T04:46:32;6.00;99.90
16515;DHT22;8370;52.556;7.970;2023-04-28T04:48:57;6.00;99.90
16515;DHT22;8370;52.556;7.970;2023-04-28T04:51:23;6.10;99.90
16515;DHT22;8370;52.556;7.970;2023-04-28T04:53:48;6.20;99.90
16515;DHT22;8370;52.556;7.970;2023-04-28T04:56:14;6.20;99.90
16515;DHT22;8370;52.556;7.970;2023-04-28T04:58:42;6.30;99.90
16515;DHT22;8370;52.556;7.970;2023-04-28T05:01:08;6.30;99.90
16515;DHT22;8370;52.556;7.970;2023-04-28T05:03:34;6.40;99.90
16515;DHT22;8370;52.556;7.970;2023-04-28T05:06:00;6.50;99.90
16515;DHT22;8370;52.556;7.970;2023-04-28T05:08:27;6.60;99.90
16515;DHT22;8370;52.556;7.970;2023-04-28T05:10:52;6.70;99.90
16515;DHT22;8370;52.556;7.970;2023-04-28T05:13:18;6.90;99.90
16515;DHT22;8370;52.556;7.970;2023-04-28T05:15:43;7.00;99.90
16515;DHT22;8370;52.556;7.970;2023-04-28T05:18:09;7.20;99.90
16515;DHT22;8370;52.556;7.970;2023-04-28T05:20:36;7.30;99.90
16515;DHT22;8370;52.556;7.970;2023-04-28T05:23:02;7.40;99.90
16515;DHT22;8370;52.556;7.970;2023-04-28T05:25:27;7.50;99.90
16515;DHT22;8370;52.556;7.970;2023-04-28T05:27:53;7.60;99.90
16515;DHT22;8370;52.556;7.970;2023-04-28T05:30:19;7.70;99.90
16515;DHT22;8370;52.556;7.970;2023-04-28T05:32:44;7.80;99.90
16515;DHT22;8370;52.556;7.970;2023-04-28T05:35:10;7.90;99.90
16515;DHT22;8370;52.556;7.970;2023-04-28T05:37:35;8.00;99.90
16515;DHT22;8370;52.556;7.970;2023-04-28T05:40:02;8.10;99.90
16515;DHT22;8370;52.556;7.970;2023-04-28T05:42:28;8.20;99.90
16515;DHT22;8370;52.556;7.970;2023-04-28T05:44:53;8.30;99.90
16515;DHT22;8370;52.556;7.970;2023-04-28T05:47:19;8.40;99.90
16515;DHT22;8370;52.556;7.970;2023-04-28T05:49:44;8.50;99.90
16515;DHT22;8370;52.556;7.970;2023-04-28T05:52:10;8.60;99.90
16515;DHT22;8370;52.556;7.970;2023-04-28T05:54:35;8.60;99.90
16515;DHT22;8370;52.556;7.970;2023-04-28T05:57:01;8.70;99.90
16515;DHT22;8370;52.556;7.970;2023-04-28T05:59:26;8.80;99.90
16515;DHT22;8370;52.556;7.970;2023-04-28T06:01:52;8.90;99.90
16515;DHT22;8370;52.556;7.970;2023-04-28T06:04:18;8.90;99.90
16515;DHT22;8370;52.556;7.970;2023-04-28T06:06:44;8.90;99.90
16515;DHT22;8370;52.556;7.970;2023-04-28T06:09:09;8.90;99.90
16515;DHT22;8370;52.556;7.970;2023-04-28T06:11:35;9.00;99.90
16515;DHT22;8370;52.556;7.970;2023-04-28T06:14:00;9.00;99.90
16515;DHT22;8370;52.556;7.970;2023-04-28T06:16:26;9.10;99.90
16515;DHT22;8370;52.556;7.970;2023-04-28T06:18:51;9.20;99.90
16515;DHT22;8370;52.556;7.970;2023-04-28T06:21:17;9.20;99.90
16515;DHT22;8370;52.556;7.970;2023-04-28T06:23:43;9.30;99.90
16515;DHT22;8370;52.556;7.970;2023-04-28T06:26:09;9.40;99.90
16515;DHT22;8370;52.556;7.970;2023-04-28T06:28:34;9.50;99.90
16515;DHT22;8370;52.556;7.970;2023-04-28T06:31:00;9.60;99.90
16515;DHT22;8370;52.556;7.970;2023-04-28T06:33:26;9.60;99.90
16515;DHT22;8370;52.556;7.970;2023-04-28T06:35:52;9.70;99.90
16515;DHT22;8370;52.556;7.970;2023-04-28T06:38:18;9.80;99.90
16515;DHT22;8370;52.556;7.970;2023-04-28T06:40:43;9.90;99.90
16515;DHT22;8370;52.556;7.970;2023-04-28T06:43:10;10.00;99.90
16515;DHT22;8370;52.556;7.970;2023-04-28T06:45:36;10.10;99.90
16515;DHT22;8370;52.556;7.970;2023-04-28T06:48:01;10.20;99.90
16515;DHT22;8370;52.556;7.970;2023-04-28T06:50:27;10.30;99.90
16515;DHT22;8370;52.556;7.970;2023-04-28T06:52:52;10.30;99.90
16515;DHT22;8370;52.556;7.970;2023-04-28T06:55:18;10.30;99.90
16515;DHT22;8370;52.556;7.970;2023-04-28T06:57:44;10.40;99.90
16515;DHT22;8370;52.556;7.970;2023-04-28T07:00:10;10.50;99.90
16515;DHT22;8370;52.556;7.970;2023-04-28T07:02:38;10.50;99.90
16515;DHT22;8370;52.556;7.970;2023-04-28T07:05:03;10.70;99.90
16515;DHT22;8370;52.556;7.970;2023-04-28T07:07:29;10.70;99.90
16515;DHT22;8370;52.556;7.970;2023-04-28T07:09:55;10.80;99.90
16515;DHT22;8370;52.556;7.970;2023-04-28T07:12:21;10.80;99.90
16515;DHT22;8370;52.556;7.970;2023-04-28T07:14:47;10.90;99.90
16515;DHT22;8370;52.556;7.970;2023-04-28T07:17:13;11.00;99.90
16515;DHT22;8370;52.556;7.970;2023-04-28T07:19:38;11.00;99.90
16515;DHT22;8370;52.556;7.970;2023-04-28T07:22:04;11.10;99.90
16515;DHT22;8370;52.556;7.970;2023-04-28T07:24:29;11.20;99.90
16515;DHT22;8370;52.556;7.970;2023-04-28T07:26:55;11.20;99.90
16515;DHT22;8370;52.556;7.970;2023-04-28T07:29:22;11.20;99.90
16515;DHT22;8370;52.556;7.970;2023-04-28T07:31:47;11.20;99.90
16515;DHT22;8370;52.556;7.970;2023-04-28T07:34:13;11.30;99.90
16515;DHT22;8370;52.556;7.970;2023-04-28T07:36:39;11.20;99.90
16515;DHT22;8370;52.556;7.970;2023-04-28T07:39:04;11.20;99.90
16515;DHT22;8370;52.556;7.970;2023-04-28T07:41:32;11.10;99.90
16515;DHT22;8370;52.556;7.970;2023-04-28T07:44:00;11.10;99.90
16515;DHT22;8370;52.556;7.970;2023-04-28T07:46:25;11.20;99.90
16515;DHT22;8370;52.556;7.970;2023-04-28T07:48:51;11.20;99.90
16515;DHT22;8370;52.556;7.970;2023-04-28T07:51:16;11.20;99.90
16515;DHT22;8370;52.556;7.970;2023-04-28T07:53:42;11.20;99.90
16515;DHT22;8370;52.556;7.970;2023-04-28T07:56:07;11.20;99.90
16515;DHT22;8370;52.556;7.970;2023-04-28T07:58:33;11.20;99.90
16515;DHT22;8370;52.556;7.970;2023-04-28T08:00:58;11.20;99.90
16515;DHT22;8370;52.556;7.970;2023-04-28T08:03:23;11.20;99.90
16515;DHT22;8370;52.556;7.970;2023-04-28T08:05:49;11.20;99.90
16515;DHT22;8370;52.556;7.970;2023-04-28T08:08:14;11.20;99.90
16515;DHT22;8370;52.556;7.970;2023-04-28T08:10:40;11.10;99.90
16515;DHT22;8370;52.556;7.970;2023-04-28T08:13:08;11.00;99.90
16515;DHT22;8370;52.556;7.970;2023-04-28T08:15:33;11.00;99.90
16515;DHT22;8370;52.556;7.970;2023-04-28T08:17:59;11.00;99.90
16515;DHT22;8370;52.556;7.970;2023-04-28T08:20:24;11.00;99.90
16515;DHT22;8370;52.556;7.970;2023-04-28T08:22:50;11.00;99.90
16515;DHT22;8370;52.556;7.970;2023-04-28T08:25:16;11.00;99.90
16515;DHT22;8370;52.556;7.970;2023-04-28T08:27:42;11.00;99.90
16515;DHT22;8370;52.556;7.970;2023-04-28T08:30:08;11.00;99.90
16515;DHT22;8370;52.556;7.970;2023-04-28T08:32:34;11.10;99.90
16515;DHT22;8370;52.556;7.970;2023-04-28T08:35:00;11.20;99.90
16515;DHT22;8370;52.556;7.970;2023-04-28T08:37:26;11.30;99.90
16515;DHT22;8370;52.556;7.970;2023-04-28T08:39:52;11.40;99.90
16515;DHT22;8370;52.556;7.970;2023-04-28T08:42:28;11.40;99.90
16515;DHT22;8370;52.556;7.970;2023-04-28T08:44:55;11.50;99.90
16515;DHT22;8370;52.556;7.970;2023-04-28T08:47:36;11.50;99.90
16515;DHT22;8370;52.556;7.970;2023-04-28T08:50:06;11.60;99.90
16515;DHT22;8370;52.556;7.970;2023-04-28T08:52:33;11.80;99.90
16515;DHT22;8370;52.556;7.970;2023-04-28T08:55:00;11.90;99.90
16515;DHT22;8370;52.556;7.970;2023-04-28T08:57:37;12.00;99.90
16515;DHT22;8370;52.556;7.970;2023-04-28T09:00:04;12.20;99.90
16515;DHT22;8370;52.556;7.970;2023-04-28T09:02:30;12.30;99.90
16515;DHT22;8370;52.556;7.970;2023-04-28T09:04:55;12.50;99.90
16515;DHT22;8370;52.556;7.970;2023-04-28T09:07:21;12.50;99.90
16515;DHT22;8370;52.556;7.970;2023-04-28T09:09:47;12.60;99.90
16515;DHT22;8370;52.556;7.970;2023-04-28T09:12:12;12.70;99.90
16515;DHT22;8370;52.556;7.970;2023-04-28T09:14:38;12.80;99.90
16515;DHT22;8370;52.556;7.970;2023-04-28T09:17:09;12.90;99.90
16515;DHT22;8370;52.556;7.970;2023-04-28T09:19:37;13.00;99.90
16515;DHT22;8370;52.556;7.970;2023-04-28T09:22:04;13.10;99.90
16515;DHT22;8370;52.556;7.970;2023-04-28T09:24:37;13.20;99.90
16515;DHT22;8370;52.556;7.970;2023-04-28T09:27:09;13.10;99.90
16515;DHT22;8370;52.556;7.970;2023-04-28T09:29:36;13.20;99.90
16515;DHT22;8370;52.556;7.970;2023-04-28T09:32:13;13.10;99.90
16515;DHT22;8370;52.556;7.970;2023-04-28T09:34:46;13.30;99.90
16515;DHT22;8370;52.556;7.970;2023-04-28T09:37:16;13.20;99.90
16515;DHT22;8370;52.556;7.970;2023-04-28T09:39:45;13.20;99.90
16515;DHT22;8370;52.556;7.970;2023-04-28T09:42:30;13.20;99.90
16515;DHT22;8370;52.556;7.970;2023-04-28T09:44:56;13.20;99.90
16515;DHT22;8370;52.556;7.970;2023-04-28T09:47:22;13.20;99.90
16515;DHT22;8370;52.556;7.970;2023-04-28T09:49:56;13.10;99.90
16515;DHT22;8370;52.556;7.970;2023-04-28T09:52:22;12.80;99.90
16515;DHT22;8370;52.556;7.970;2023-04-28T09:54:49;12.50;99.90
16515;DHT22;8370;52.556;7.970;2023-04-28T09:57:16;12.50;99.90
16515;DHT22;8370;52.556;7.970;2023-04-28T09:59:46;12.40;99.90
16515;DHT22;8370;52.556;7.970;2023-04-28T10:02:17;12.40;99.90
16515;DHT22;8370;52.556;7.970;2023-04-28T10:04:49;12.40;99.90
16515;DHT22;8370;52.556;7.970;2023-04-28T10:07:17;12.40;99.90
16515;DHT22;8370;52.556;7.970;2023-04-28T10:09:44;12.40;99.90
16515;DHT22;8370;52.556;7.970;2023-04-28T10:12:13;12.40;99.90
16515;DHT22;8370;52.556;7.970;2023-04-28T10:14:39;12.40;99.90
16515;DHT22;8370;52.556;7.970;2023-04-28T10:17:05;12.40;99.90
16515;DHT22;8370;52.556;7.970;2023-04-28T10:19:31;12.50;99.90
16515;DHT22;8370;52.556;7.970;2023-04-28T10:24:48;12.80;99.90
16515;DHT22;8370;52.556;7.970;2023-04-28T10:27:18;13.00;99.90
16515;DHT22;8370;52.556;7.970;2023-04-28T10:29:44;13.10;99.90
16515;DHT22;8370;52.556;7.970;2023-04-28T10:32:17;13.30;99.90
16515;DHT22;8370;52.556;7.970;2023-04-28T10:34:43;13.40;99.90
16515;DHT22;8370;52.556;7.970;2023-04-28T10:37:08;13.60;99.90
16515;DHT22;8370;52.556;7.970;2023-04-28T10:39:34;13.70;99.90
16515;DHT22;8370;52.556;7.970;2023-04-28T10:41:59;13.80;99.90
16515;DHT22;8370;52.556;7.970;2023-04-28T10:47:07;14.10;99.90
16515;DHT22;8370;52.556;7.970;2023-04-28T10:55:26;15.00;99.90
16515;DHT22;8370;52.556;7.970;2023-04-28T11:00:40;15.70;99.90
16515;DHT22;8370;52.556;7.970;2023-04-28T11:03:06;16.30;99.90
16515;DHT22;8370;52.556;7.970;2023-04-28T11:05:32;16.50;99.90
16515;DHT22;8370;52.556;7.970;2023-04-28T11:11:19;16.80;99.90
16515;DHT22;8370;52.556;7.970;2023-04-28T11:13:45;17.00;99.90
16515;DHT22;8370;52.556;7.970;2023-04-28T11:16:13;17.00;99.90
16515;DHT22;8370;52.556;7.970;2023-04-28T11:21:20;17.20;99.90
16515;DHT22;8370;52.556;7.970;2023-04-28T11:23:46;17.20;99.90
16515;DHT22;8370;52.556;7.970;2023-04-28T11:26:12;17.50;99.90
16515;DHT22;8370;52.556;7.970;2023-04-28T11:28:48;17.60;99.90
16515;DHT22;8370;52.556;7.970;2023-04-28T11:31:15;17.70;99.90
16515;DHT22;8370;52.556;7.970;2023-04-28T11:33:50;17.60;99.90
16515;DHT22;8370;52.556;7.970;2023-04-28T11:36:35;17.50;99.90
16515;DHT22;8370;52.556;7.970;2023-04-28T11:39:02;17.30;99.90
16515;DHT22;8370;52.556;7.970;2023-04-28T11:41:30;17.10;99.90
16515;DHT22;8370;52.556;7.970;2023-04-28T11:43:55;17.20;99.90
16515;DHT22;8370;52.556;7.970;2023-04-28T11:46:23;17.60;99.90
16515;DHT22;8370;52.556;7.970;2023-04-28T11:49:02;18.10;99.90
16515;DHT22;8370;52.556;7.970;2023-04-28T11:51:36;18.60;99.90
16515;DHT22;8370;52.556;7.970;2023-04-28T11:54:04;19.40;99.90
16515;DHT22;8370;52.556;7.970;2023-04-28T11:56:36;20.70;99.90
16515;DHT22;8370;52.556;7.970;2023-04-28T11:59:05;21.70;99.90
16515;DHT22;8370;52.556;7.970;2023-04-28T12:01:32;21.80;99.90
16515;DHT22;8370;52.556;7.970;2023-04-28T12:03:59;21.50;99.90
16515;DHT22;8370;52.556;7.970;2023-04-28T12:06:24;21.50;99.90
16515;DHT22;8370;52.556;7.970;2023-04-28T12:08:50;22.00;99.90
16515;DHT22;8370;52.556;7.970;2023-04-28T12:11:17;21.40;99.90
16515;DHT22;8370;52.556;7.970;2023-04-28T12:13:43;21.40;99.90
16515;DHT22;8370;52.556;7.970;2023-04-28T12:16:08;22.80;99.90
16515;DHT22;8370;52.556;7.970;2023-04-28T12:18:37;23.10;99.90
16515;DHT22;8370;52.556;7.970;2023-04-28T12:21:03;21.80;99.90
16515;DHT22;8370;52.556;7.970;2023-04-28T12:23:33;21.20;99.90
16515;DHT22;8370;52.556;7.970;2023-04-28T12:26:02;20.50;99.90
16515;DHT22;8370;52.556;7.970;2023-04-28T12:28:37;20.20;99.90
16515;DHT22;8370;52.556;7.970;2023-04-28T12:31:05;20.30;99.90
16515;DHT22;8370;52.556;7.970;2023-04-28T12:33:32;20.90;99.90
16515;DHT22;8370;52.556;7.970;2023-04-28T12:36:02;20.90;99.90
16515;DHT22;8370;52.556;7.970;2023-04-28T12:38:28;20.40;99.90
16515;DHT22;8370;52.556;7.970;2023-04-28T12:40:54;20.10;99.90
16515;DHT22;8370;52.556;7.970;2023-04-28T12:43:20;19.90;99.90
16515;DHT22;8370;52.556;7.970;2023-04-28T12:45:51;19.60;99.90
16515;DHT22;8370;52.556;7.970;2023-04-28T12:48:21;19.40;99.90
16515;DHT22;8370;52.556;7.970;2023-04-28T12:50:48;19.40;99.90
16515;DHT22;8370;52.556;7.970;2023-04-28T12:53:13;19.50;99.90
16515;DHT22;8370;52.556;7.970;2023-04-28T12:55:39;20.00;99.90
16515;DHT22;8370;52.556;7.970;2023-04-28T12:58:04;20.50;99.90
16515;DHT22;8370;52.556;7.970;2023-04-28T13:00:30;20.90;99.90
16515;DHT22;8370;52.556;7.970;2023-04-28T13:02:56;20.90;99.90
16515;DHT22;8370;52.556;7.970;2023-04-28T13:05:22;20.70;99.90
16515;DHT22;8370;52.556;7.970;2023-04-28T13:07:47;20.40;99.90
16515;DHT22;8370;52.556;7.970;2023-04-28T13:10:14;19.90;99.90
16515;DHT22;8370;52.556;7.970;2023-04-28T13:12:39;19.50;99.90
16515;DHT22;8370;52.556;7.970;2023-04-28T13:15:06;19.10;99.90
16515;DHT22;8370;52.556;7.970;2023-04-28T13:17:32;18.90;99.90
16515;DHT22;8370;52.556;7.970;2023-04-28T13:19:59;18.70;99.90
16515;DHT22;8370;52.556;7.970;2023-04-28T13:22:26;18.70;99.90
16515;DHT22;8370;52.556;7.970;2023-04-28T13:24:51;18.70;99.90
16515;DHT22;8370;52.556;7.970;2023-04-28T13:27:17;18.70;99.90
16515;DHT22;8370;52.556;7.970;2023-04-28T13:29:43;18.70;99.90
16515;DHT22;8370;52.556;7.970;2023-04-28T13:32:08;18.50;99.90
16515;DHT22;8370;52.556;7.970;2023-04-28T13:34:34;18.30;99.90
16515;DHT22;8370;52.556;7.970;2023-04-28T13:37:01;18.00;99.90
16515;DHT22;8370;52.556;7.970;2023-04-28T13:39:27;17.90;99.90
16515;DHT22;8370;52.556;7.970;2023-04-28T13:41:53;17.70;99.90
16515;DHT22;8370;52.556;7.970;2023-04-28T13:44:18;17.50;99.90
16515;DHT22;8370;52.556;7.970;2023-04-28T13:46:44;17.20;99.90
16515;DHT22;8370;52.556;7.970;2023-04-28T13:49:10;17.10;99.90
16515;DHT22;8370;52.556;7.970;2023-04-28T13:51:36;16.70;99.90
16515;DHT22;8370;52.556;7.970;2023-04-28T13:54:02;16.60;99.90
16515;DHT22;8370;52.556;7.970;2023-04-28T13:56:35;16.50;99.90
16515;DHT22;8370;52.556;7.970;2023-04-28T13:59:01;16.60;99.90
16515;DHT22;8370;52.556;7.970;2023-04-28T14:01:27;16.70;99.90
16515;DHT22;8370;52.556;7.970;2023-04-28T14:03:53;16.80;99.90
16515;DHT22;8370;52.556;7.970;2023-04-28T14:06:18;16.90;99.90
16515;DHT22;8370;52.556;7.970;2023-04-28T14:08:44;16.80;99.90
16515;DHT22;8370;52.556;7.970;2023-04-28T14:11:09;16.60;99.90
16515;DHT22;8370;52.556;7.970;2023-04-28T14:13:36;16.50;99.90
16515;DHT22;8370;52.556;7.970;2023-04-28T14:16:01;16.40;99.90
16515;DHT22;8370;52.556;7.970;2023-04-28T14:18:27;16.30;99.90
16515;DHT22;8370;52.556;7.970;2023-04-28T14:20:53;16.40;99.90
16515;DHT22;8370;52.556;7.970;2023-04-28T14:23:19;16.50;99.90
16515;DHT22;8370;52.556;7.970;2023-04-28T14:25:44;16.50;99.90
16515;DHT22;8370;52.556;7.970;2023-04-28T14:28:10;16.40;99.90
16515;DHT22;8370;52.556;7.970;2023-04-28T14:30:36;16.50;99.90
16515;DHT22;8370;52.556;7.970;2023-04-28T14:33:02;16.30;99.90
16515;DHT22;8370;52.556;7.970;2023-04-28T14:35:27;16.20;99.90
16515;DHT22;8370;52.556;7.970;2023-04-28T14:37:54;16.20;99.90
16515;DHT22;8370;52.556;7.970;2023-04-28T14:40:20;16.20;99.90
16515;DHT22;8370;52.556;7.970;2023-04-28T14:42:46;16.10;99.90
16515;DHT22;8370;52.556;7.970;2023-04-28T14:45:12;15.90;99.90
16515;DHT22;8370;52.556;7.970;2023-04-28T14:47:38;15.80;99.90
16515;DHT22;8370;52.556;7.970;2023-04-28T14:50:05;15.80;99.90
16515;DHT22;8370;52.556;7.970;2023-04-28T14:52:30;15.70;99.90
16515;DHT22;8370;52.556;7.970;2023-04-28T14:54:58;15.60;99.90
16515;DHT22;8370;52.556;7.970;2023-04-28T14:57:24;15.50;99.90
16515;DHT22;8370;52.556;7.970;2023-04-28T14:59:50;15.50;99.90
16515;DHT22;8370;52.556;7.970;2023-04-28T15:02:19;15.50;99.90
16515;DHT22;8370;52.556;7.970;2023-04-28T15:04:46;15.50;99.90
16515;DHT22;8370;52.556;7.970;2023-04-28T15:07:12;15.40;99.90
16515;DHT22;8370;52.556;7.970;2023-04-28T15:09:38;15.40;99.90
16515;DHT22;8370;52.556;7.970;2023-04-28T15:12:03;15.20;99.90
16515;DHT22;8370;52.556;7.970;2023-04-28T15:14:29;15.20;99.90
16515;DHT22;8370;52.556;7.970;2023-04-28T15:16:55;15.00;99.90
16515;DHT22;8370;52.556;7.970;2023-04-28T15:19:21;15.00;99.90
16515;DHT22;8370;52.556;7.970;2023-04-28T15:21:47;15.00;99.90
16515;DHT22;8370;52.556;7.970;2023-04-28T15:24:14;14.90;99.90
16515;DHT22;8370;52.556;7.970;2023-04-28T15:26:39;14.80;99.90
16515;DHT22;8370;52.556;7.970;2023-04-28T15:29:05;14.80;99.90
16515;DHT22;8370;52.556;7.970;2023-04-28T15:31:31;14.80;99.90
16515;DHT22;8370;52.556;7.970;2023-04-28T15:33:57;14.80;99.90
16515;DHT22;8370;52.556;7.970;2023-04-28T15:36:22;14.80;99.90
16515;DHT22;8370;52.556;7.970;2023-04-28T15:38:48;14.70;99.90
16515;DHT22;8370;52.556;7.970;2023-04-28T15:41:14;14.70;99.90
16515;DHT22;8370;52.556;7.970;2023-04-28T15:43:40;14.60;99.90
16515;DHT22;8370;52.556;7.970;2023-04-28T15:46:07;14.60;99.90
16515;DHT22;8370;52.556;7.970;2023-04-28T15:48:36;14.60;99.90
16515;DHT22;8370;52.556;7.970;2023-04-28T15:51:04;14.50;99.90
16515;DHT22;8370;52.556;7.970;2023-04-28T15:53:30;14.40;99.90
16515;DHT22;8370;52.556;7.970;2023-04-28T15:55:56;14.40;99.90
16515;DHT22;8370;52.556;7.970;2023-04-28T15:58:22;14.30;99.90
16515;DHT22;8370;52.556;7.970;2023-04-28T16:00:48;14.30;99.90
16515;DHT22;8370;52.556;7.970;2023-04-28T16:03:13;14.30;99.90
16515;DHT22;8370;52.556;7.970;2023-04-28T16:05:39;14.30;99.90
16515;DHT22;8370;52.556;7.970;2023-04-28T16:08:04;14.30;99.90